Time;durP1;ratioP1;P1;durP2;ratioP2;P2;SDS_P1;SDS_P2;PMS_P1;PMS_P2;Temp;Humidity;BMP_temperature;BMP_pressure;BME280_temperature;BME280_humidity;BME280_pressure;Samples;Min_cycle;Max_cycle;Signal;HPM_P1;HPM_P2
2022/10/10 00:01:16;;;;;;;2.75;1.15;;;;;;;13.75;46.95;99814.06;5110014;28;20656;-58
2022/10/10 00:03:43;;;;;;;2.88;1.30;;;;;;;13.74;47.05;99807.09;5110179;28;20065;-60
2022/10/10 00:06:12;;;;;;;2.35;0.90;;;;;;;13.73;47.03;99810.69;5111303;28;20048;-61
2022/10/10 00:08:39;;;;;;;2.00;0.80;;;;;;;13.74;46.95;99803.56;5111129;28;20063;-61
2022/10/10 00:11:06;;;;;;;3.80;1.17;;;;;;;13.73;47.06;99791.31;5111355;28;20384;-55
2022/10/10 00:13:33;;;;;;;2.33;1.15;;;;;;;13.73;47.13;99804.53;5115403;28;20052;-63
2022/10/10 00:16:00;;;;;;;2.35;1.02;;;;;;;13.71;47.11;99799.34;5115276;28;20108;-61
2022/10/10 00:18:27;;;;;;;2.10;1.10;;;;;;;13.71;47.08;99802.00;5114692;28;20694;-61
2022/10/10 00:20:54;;;;;;;2.63;1.20;;;;;;;13.71;47.26;99803.81;5115196;28;20589;-60
2022/10/10 00:23:20;;;;;;;2.45;0.93;;;;;;;13.69;47.07;99806.56;5114898;28;20124;-62
2022/10/10 00:25:48;;;;;;;2.42;0.75;;;;;;;13.67;47.08;99801.38;5115010;28;20483;-57
2022/10/10 00:28:15;;;;;;;2.47;0.90;;;;;;;13.67;47.06;99805.81;5113578;28;20116;-62
2022/10/10 00:30:43;;;;;;;2.53;1.15;;;;;;;13.66;47.01;99799.69;5113329;28;20043;-60
2022/10/10 00:33:10;;;;;;;1.95;0.93;;;;;;;13.65;47.17;99797.97;5114826;28;20051;-60
2022/10/10 00:35:37;;;;;;;3.47;1.00;;;;;;;13.65;47.09;99794.50;5113463;28;20047;-63
2022/10/10 00:38:03;;;;;;;0.77;0.73;;;;;;;13.63;47.25;99791.09;5114548;28;20113;-63
2022/10/10 00:40:30;;;;;;;2.25;0.90;;;;;;;13.63;47.13;99797.25;5114512;28;20130;-63
2022/10/10 00:42:57;;;;;;;1.77;0.90;;;;;;;13.62;47.33;99792.06;5114655;28;20083;-62
2022/10/10 00:45:26;;;;;;;2.38;1.23;;;;;;;13.60;47.93;99796.63;5114744;28;20127;-60
2022/10/10 00:48:08;;;;;;;5.10;1.05;;;;;;;13.57;47.73;99791.53;5114598;28;20044;-62
2022/10/10 00:50:39;;;;;;;2.03;0.90;;;;;;;13.60;47.33;99791.34;5113172;28;20496;-61
2022/10/10 00:53:09;;;;;;;4.20;1.20;;;;;;;13.57;47.46;99781.78;5113363;28;20052;-62
2022/10/10 00:55:36;;;;;;;2.78;1.20;;;;;;;13.55;47.33;99783.72;5113553;28;20086;-60
2022/10/10 00:58:06;;;;;;;1.85;0.90;;;;;;;13.54;47.58;99789.97;5113315;28;20119;-65
2022/10/10 01:00:32;;;;;;;1.83;1.00;;;;;;;13.53;47.32;99781.16;5114161;28;20098;-60
2022/10/10 01:02:59;;;;;;;4.43;1.20;;;;;;;13.52;47.24;99781.25;5114269;28;20102;-58
2022/10/10 01:05:26;;;;;;;2.05;0.90;;;;;;;13.51;47.36;99782.22;5114054;28;20055;-60
2022/10/10 01:07:53;;;;;;;2.13;0.90;;;;;;;13.50;47.17;99783.19;5114297;27;20380;-61
2022/10/10 01:10:21;;;;;;;3.25;1.13;;;;;;;13.50;47.50;99781.38;5113785;28;20048;-61
2022/10/10 01:13:07;;;;;;;3.30;1.05;;;;;;;13.50;47.24;99776.06;5114087;28;20048;-61
2022/10/10 01:15:45;;;;;;;3.15;1.15;;;;;;;13.48;47.48;99779.78;5113980;28;20591;-60
2022/10/10 01:18:40;;;;;;;1.88;1.00;;;;;;;13.46;47.44;99776.38;5113790;28;20043;-62
2022/10/10 01:21:31;;;;;;;2.40;1.00;;;;;;;13.46;47.36;99771.91;5113748;28;20487;-63
2022/10/10 01:24:28;;;;;;;1.55;1.08;;;;;;;13.45;47.20;99772.88;5111687;28;20055;-62
2022/10/10 01:27:16;;;;;;;1.95;1.08;;;;;;;13.45;47.26;99775.53;5113575;28;20081;-60
2022/10/10 01:29:51;;;;;;;2.22;0.82;;;;;;;13.46;47.34;99773.75;5112437;28;20101;-61
2022/10/10 01:32:37;;;;;;;2.08;1.08;;;;;;;13.44;47.32;99768.56;5113440;28;20047;-63
2022/10/10 01:35:18;;;;;;;3.03;1.13;;;;;;;13.44;47.51;99771.19;5113847;28;20442;-60
2022/10/10 01:38:04;;;;;;;0.98;0.90;;;;;;;13.42;47.52;99763.38;5113659;28;20097;-61
2022/10/10 01:40:43;;;;;;;3.70;1.00;;;;;;;13.43;47.58;99758.94;5113607;28;20520;-61
2022/10/10 01:43:11;;;;;;;2.17;1.20;;;;;;;13.48;47.17;99758.63;5112361;28;20500;-58
2022/10/10 01:45:46;;;;;;;4.80;1.40;;;;;;;13.45;47.53;99754.38;5113590;28;20075;-60
2022/10/10 01:48:16;;;;;;;4.28;1.20;;;;;;;13.47;47.27;99749.84;5113213;28;20055;-61
2022/10/10 01:51:03;;;;;;;3.15;1.05;;;;;;;13.43;47.54;99754.47;5111838;28;20087;-62
2022/10/10 01:53:42;;;;;;;1.08;0.98;;;;;;;13.47;47.48;99754.28;5105691;28;20090;-60
2022/10/10 01:56:19;;;;;;;2.63;1.10;;;;;;;13.45;47.38;99748.25;5113355;28;20101;-61
2022/10/10 01:58:45;;;;;;;3.33;1.20;;;;;;;13.47;47.28;99743.69;5113008;28;20101;-62
2022/10/10 02:01:27;;;;;;;3.00;1.27;;;;;;;13.45;47.57;99740.31;5113281;28;20055;-62
2022/10/10 02:04:03;;;;;;;1.40;1.00;;;;;;;13.43;47.50;99741.25;5113046;28;20484;-62
2022/10/10 02:06:46;;;;;;;2.65;1.00;;;;;;;13.41;47.89;99737.03;5111826;28;20101;-61
2022/10/10 02:09:19;;;;;;;2.03;1.38;;;;;;;13.41;47.58;99732.59;5112853;28;20051;-59
2022/10/10 02:11:48;;;;;;;3.25;0.90;;;;;;;13.42;47.48;99744.84;5112861;28;20560;-61
2022/10/10 02:14:20;;;;;;;3.10;1.50;;;;;;;13.40;47.83;99733.56;5111530;28;20083;-63
2022/10/10 02:16:52;;;;;;;2.65;1.08;;;;;;;13.40;47.53;99735.34;5109453;28;20051;-61
2022/10/10 02:19:20;;;;;;;2.30;1.40;;;;;;;13.39;47.44;99729.19;5112461;28;20035;-61
2022/10/10 02:21:49;;;;;;;2.08;1.40;;;;;;;13.37;47.66;99730.25;5111318;28;20094;-63
2022/10/10 02:24:18;;;;;;;1.85;1.00;;;;;;;13.37;47.60;99732.91;5111286;28;20479;-61
2022/10/10 02:26:51;;;;;;;4.20;1.30;;;;;;;13.35;47.92;99726.88;5112585;28;20055;-62
2022/10/10 02:29:21;;;;;;;3.08;1.13;;;;;;;13.33;47.95;99732.28;5111051;28;20540;-60
2022/10/10 02:32:09;;;;;;;2.03;1.33;;;;;;;13.28;48.01;99726.47;5111343;28;20093;-61
2022/10/10 02:34:40;;;;;;;3.00;1.10;;;;;;;13.29;47.84;99725.50;5111271;28;20048;-61
2022/10/10 02:37:11;;;;;;;1.98;1.23;;;;;;;13.27;47.88;99722.97;5111143;28;20043;-60
2022/10/10 02:39:46;;;;;;;4.20;1.40;;;;;;;13.25;48.05;99721.38;5112277;28;20070;-61
2022/10/10 02:42:16;;;;;;;2.55;1.15;;;;;;;13.23;47.79;99721.47;5112316;28;20048;-60
2022/10/10 02:44:45;;;;;;;2.42;1.35;;;;;;;13.22;47.92;99721.59;5111183;28;20495;-60
2022/10/10 02:47:12;;;;;;;1.30;1.20;;;;;;;13.21;47.88;99714.63;5112195;28;20055;-62
2022/10/10 02:49:39;;;;;;;2.20;1.23;;;;;;;13.18;47.90;99717.47;5112013;28;20051;-62
2022/10/10 02:52:06;;;;;;;2.15;1.10;;;;;;;13.16;47.93;99704.38;5110691;28;20093;-61
2022/10/10 02:54:33;;;;;;;3.40;1.10;;;;;;;13.14;47.89;99714.19;5112223;28;20089;-60
2022/10/10 02:57:00;;;;;;;3.05;1.63;;;;;;;13.12;47.99;99710.81;5112189;28;20106;-60
2022/10/10 02:59:26;;;;;;;3.03;1.30;;;;;;;13.09;48.28;99701.28;5111889;28;20195;-62
2022/10/10 03:01:53;;;;;;;1.98;1.42;;;;;;;13.08;48.28;99706.69;5112012;28;20518;-61
2022/10/10 03:04:19;;;;;;;3.58;1.60;;;;;;;13.06;48.35;99704.16;5112023;28;20083;-60
2022/10/10 03:06:46;;;;;;;3.42;1.60;;;;;;;13.05;48.35;99707.75;5112029;28;20491;-62
2022/10/10 03:09:13;;;;;;;1.30;0.90;;;;;;;13.03;48.31;99693.78;5111494;28;20104;-60
2022/10/10 03:11:40;;;;;;;2.50;1.33;;;;;;;12.99;48.46;99693.16;5111858;28;20079;-61
2022/10/10 03:14:07;;;;;;;2.13;1.40;;;;;;;12.97;48.34;99694.22;5111710;28;20670;-62
2022/10/10 03:16:33;;;;;;;2.55;1.30;;;;;;;12.95;48.57;99696.09;5111791;28;20051;-61
2022/10/10 03:19:01;;;;;;;2.78;1.35;;;;;;;12.92;48.52;99691.03;5111362;28;20086;-61
2022/10/10 03:21:28;;;;;;;3.15;1.38;;;;;;;12.90;48.59;99688.50;5111642;28;20096;-62
2022/10/10 03:23:56;;;;;;;3.35;1.60;;;;;;;12.87;48.79;99678.16;5111582;28;20087;-62
2022/10/10 03:26:22;;;;;;;1.80;1.20;;;;;;;12.85;48.71;99686.16;5111458;28;20082;-61
2022/10/10 03:28:49;;;;;;;2.35;1.27;;;;;;;12.84;48.78;99688.91;5111272;28;20488;-62
2022/10/10 03:31:16;;;;;;;2.58;1.30;;;;;;;12.82;48.77;99688.19;5111435;28;20087;-59
2022/10/10 03:33:42;;;;;;;2.67;1.40;;;;;;;12.80;48.85;99688.28;5111866;28;20089;-62
2022/10/10 03:36:09;;;;;;;2.25;1.40;;;;;;;12.79;48.96;99683.94;5111544;28;20085;-61
2022/10/10 03:38:38;;;;;;;2.60;1.20;;;;;;;12.78;49.16;99684.88;5111292;28;20047;-59
2022/10/10 03:41:05;;;;;;;2.47;1.10;;;;;;;12.80;49.01;99692.72;5111386;28;20067;-63
2022/10/10 03:43:32;;;;;;;1.80;1.40;;;;;;;12.77;48.96;99680.56;5111264;28;20101;-61
2022/10/10 03:45:58;;;;;;;5.28;1.58;;;;;;;12.75;48.98;99674.53;5111348;28;20051;-60
2022/10/10 03:48:25;;;;;;;1.88;1.35;;;;;;;12.74;49.06;99675.47;5111105;28;20060;-62
2022/10/10 03:50:51;;;;;;;1.88;1.40;;;;;;;12.73;49.22;99671.16;5111205;28;20040;-60
2022/10/10 03:53:18;;;;;;;2.55;1.50;;;;;;;12.71;49.48;99670.41;5111254;28;20131;-60
2022/10/10 03:55:45;;;;;;;4.05;1.25;;;;;;;12.70;49.41;99671.34;5111239;28;20130;-61
2022/10/10 03:58:11;;;;;;;3.25;1.45;;;;;;;12.68;49.23;99668.84;5110947;28;20090;-61
2022/10/10 04:00:38;;;;;;;3.65;1.48;;;;;;;12.67;49.57;99663.66;5111218;28;20043;-60
2022/10/10 04:03:05;;;;;;;1.40;1.25;;;;;;;12.65;49.56;99666.38;5111280;28;20189;-60
2022/10/10 04:05:37;;;;;;;2.25;1.30;;;;;;;12.62;50.10;99664.81;5111361;28;20545;-61
2022/10/10 04:08:05;;;;;;;1.85;1.33;;;;;;;12.64;49.56;99664.69;5110931;28;20052;-66
2022/10/10 04:10:31;;;;;;;2.53;1.50;;;;;;;12.63;49.70;99655.94;5109923;28;20044;-62
2022/10/10 04:12:58;;;;;;;1.88;1.30;;;;;;;12.62;49.58;99656.88;5111083;28;20091;-61
2022/10/10 04:15:25;;;;;;;1.55;1.35;;;;;;;12.61;49.68;99651.69;5111146;28;20101;-61
2022/10/10 04:17:52;;;;;;;4.43;1.92;;;;;;;12.60;49.69;99644.72;5111289;28;20096;-62
2022/10/10 04:20:18;;;;;;;5.93;1.73;;;;;;;12.59;49.76;99648.28;5110874;28;20484;-60
2022/10/10 04:22:45;;;;;;;3.03;1.42;;;;;;;12.58;49.86;99643.97;5110889;28;20095;-60
2022/10/10 04:25:12;;;;;;;2.88;1.48;;;;;;;12.56;49.84;99649.34;5110876;28;20134;-62
2022/10/10 04:27:38;;;;;;;5.85;1.60;;;;;;;12.54;49.74;99646.00;5111072;28;20086;-58
2022/10/10 04:30:06;;;;;;;2.42;1.13;;;;;;;12.53;50.07;99646.09;5110510;28;20130;-61
2022/10/10 04:32:32;;;;;;;6.30;1.90;;;;;;;12.50;49.93;99644.50;5111165;28;20088;-62
2022/10/10 04:34:59;;;;;;;3.30;1.52;;;;;;;12.50;50.16;99648.00;5110861;28;20441;-61
2022/10/10 04:37:25;;;;;;;2.95;1.30;;;;;;;12.48;50.14;99643.75;5110889;28;20085;-60
2022/10/10 04:39:52;;;;;;;1.65;1.27;;;;;;;12.48;50.24;99635.81;5110579;28;20087;-62
2022/10/10 04:42:19;;;;;;;6.15;1.77;;;;;;;12.46;50.29;99637.72;5110679;28;20094;-60
2022/10/10 04:44:45;;;;;;;3.75;1.50;;;;;;;12.43;50.17;99633.50;5111143;28;20083;-60
2022/10/10 04:47:12;;;;;;;4.57;1.50;;;;;;;12.43;50.25;99632.66;5110764;28;20105;-62
2022/10/10 04:49:40;;;;;;;3.25;1.50;;;;;;;12.42;50.43;99636.25;5110757;28;20135;-61
2022/10/10 04:52:10;;;;;;;3.75;1.30;;;;;;;12.41;50.98;99635.38;5110632;28;20082;-62
2022/10/10 04:54:37;;;;;;;3.70;1.70;;;;;;;12.42;50.62;99633.59;5110701;28;20092;-60
2022/10/10 04:57:04;;;;;;;2.30;1.40;;;;;;;12.44;50.46;99636.97;5110820;28;20523;-60
2022/10/10 04:59:30;;;;;;;4.75;1.42;;;;;;;12.45;50.43;99633.41;5112978;28;20044;-61
2022/10/10 05:01:57;;;;;;;2.92;1.40;;;;;;;12.45;50.46;99630.78;5114545;28;20096;-60
2022/10/10 05:04:27;;;;;;;3.28;1.58;;;;;;;12.46;50.56;99637.72;5114459;28;20039;-61
2022/10/10 05:06:54;;;;;;;3.28;1.40;;;;;;;12.46;50.54;99638.59;5114187;28;20047;-62
2022/10/10 05:09:21;;;;;;;3.60;1.55;;;;;;;12.47;50.42;99631.50;5114042;28;20044;-64
2022/10/10 05:11:47;;;;;;;2.25;1.40;;;;;;;12.47;50.57;99629.72;5114244;28;20126;-60
2022/10/10 05:14:14;;;;;;;2.85;1.40;;;;;;;12.47;50.51;99632.34;5114186;28;20051;-61
2022/10/10 05:16:40;;;;;;;2.33;1.73;;;;;;;12.48;50.49;99630.53;5114033;28;20494;-61
2022/10/10 05:19:07;;;;;;;2.78;1.50;;;;;;;12.48;50.58;99626.13;5113865;28;20135;-61
2022/10/10 05:21:37;;;;;;;2.83;1.55;;;;;;;12.47;51.32;99623.56;5112637;28;20136;-59
2022/10/10 05:24:04;;;;;;;2.88;1.40;;;;;;;12.50;50.63;99623.38;5114167;28;20069;-60
2022/10/10 05:26:31;;;;;;;3.25;1.73;;;;;;;12.49;50.76;99622.53;5112954;28;20089;-62
2022/10/10 05:28:58;;;;;;;2.20;1.48;;;;;;;12.50;50.99;99616.31;5113177;28;20115;-62
2022/10/10 05:31:25;;;;;;;2.70;1.50;;;;;;;12.51;50.93;99617.13;5121707;27;20047;-64
2022/10/10 05:33:52;;;;;;;3.58;1.40;;;;;;;12.51;50.96;99610.06;5121708;27;20043;-59
2022/10/10 05:36:18;;;;;;;4.32;1.70;;;;;;;12.53;50.98;99606.47;5111584;27;20515;-60
2022/10/10 05:38:45;;;;;;;6.88;1.60;;;;;;;12.53;50.99;99617.91;5113530;28;20048;-60
2022/10/10 05:41:11;;;;;;;2.25;1.48;;;;;;;12.55;50.94;99604.56;5105045;28;20476;-56
2022/10/10 05:43:38;;;;;;;3.45;1.55;;;;;;;12.54;50.92;99619.59;5113510;28;20082;-60
2022/10/10 05:46:05;;;;;;;3.53;1.80;;;;;;;12.54;50.92;99616.94;5108776;28;20040;-60
2022/10/10 05:48:32;;;;;;;2.30;1.55;;;;;;;12.54;51.15;99613.44;5113264;28;20106;-62
2022/10/10 05:50:59;;;;;;;6.82;1.65;;;;;;;12.53;51.25;99612.63;5118367;27;20407;-59
2022/10/10 05:53:28;;;;;;;3.65;1.77;;;;;;;12.53;51.18;99617.03;5120441;27;20491;-65
2022/10/10 05:55:56;;;;;;;4.18;1.80;;;;;;;12.53;51.33;99612.63;5112634;28;20073;-60
2022/10/10 05:58:22;;;;;;;4.03;1.80;;;;;;;12.53;51.11;99615.25;5111815;28;20055;-62
2022/10/10 06:00:49;;;;;;;3.28;1.60;;;;;;;12.53;51.08;99614.41;5113074;28;20488;-61
2022/10/10 06:03:16;;;;;;;2.85;1.67;;;;;;;12.53;51.39;99614.41;5112821;28;20056;-62
2022/10/10 06:05:44;;;;;;;3.13;1.83;;;;;;;12.51;51.54;99620.63;5119496;27;20116;-61
2022/10/10 06:08:11;;;;;;;2.92;1.80;;;;;;;12.54;51.41;99619.59;5111053;28;20047;-61
2022/10/10 06:10:44;;;;;;;4.28;1.98;;;;;;;12.53;52.03;99617.03;5113014;28;20047;-62
2022/10/10 06:13:13;;;;;;;2.90;1.80;;;;;;;12.55;51.62;99623.03;5113043;28;20419;-60
2022/10/10 06:15:40;;;;;;;4.47;2.00;;;;;;;12.55;51.62;99618.63;5112950;28;20104;-60
2022/10/10 06:18:07;;;;;;;3.45;1.80;;;;;;;12.57;51.60;99613.25;5112897;28;20101;-60
2022/10/10 06:20:39;;;;;;;3.15;1.80;;;;;;;12.58;51.61;99621.06;5111795;28;20081;-56
2022/10/10 06:23:07;;;;;;;2.25;1.80;;;;;;;12.59;51.84;99616.63;5111814;28;20782;-58
2022/10/10 06:25:35;;;;;;;3.70;2.08;;;;;;;12.60;51.79;99615.69;5111669;28;20059;-59
2022/10/10 06:28:07;;;;;;;6.70;2.13;;;;;;;12.62;51.83;99621.69;5111632;28;20722;-56
2022/10/10 06:30:39;;;;;;;3.85;1.80;;;;;;;12.61;52.31;99615.59;5112600;28;20055;-62
2022/10/10 06:33:06;;;;;;;5.28;1.85;;;;;;;12.65;51.92;99621.50;5112649;27;20055;-60
2022/10/10 06:35:33;;;;;;;3.45;2.20;;;;;;;12.67;51.85;99624.03;5111396;28;20558;-60
2022/10/10 06:37:59;;;;;;;5.75;2.30;;;;;;;12.68;51.93;99617.81;5112391;28;20446;-60
2022/10/10 06:40:26;;;;;;;3.38;2.10;;;;;;;12.70;51.95;99618.53;5112142;28;20134;-58
2022/10/10 06:42:53;;;;;;;2.72;1.98;;;;;;;12.70;51.91;99624.66;5112211;28;20040;-61
2022/10/10 06:45:20;;;;;;;4.55;2.35;;;;;;;12.72;52.00;99621.91;5112415;28;20059;-63
2022/10/10 06:47:46;;;;;;;4.75;2.05;;;;;;;12.73;52.06;99627.09;5112244;28;20130;-59
2022/10/10 06:50:13;;;;;;;3.20;1.80;;;;;;;12.76;52.12;99626.88;5111921;28;20499;-61
2022/10/10 06:52:40;;;;;;;4.63;2.25;;;;;;;12.77;52.15;99625.94;5112257;28;20063;-61
2022/10/10 06:55:07;;;;;;;3.70;2.22;;;;;;;12.79;52.21;99612.63;5112080;28;20063;-60
2022/10/10 06:57:34;;;;;;;5.32;2.78;;;;;;;12.81;52.20;99618.66;5110970;28;20052;-59
2022/10/10 07:00:00;;;;;;;5.35;2.53;;;;;;;12.84;52.13;99620.22;5111931;28;20051;-62
2022/10/10 07:02:27;;;;;;;4.28;2.20;;;;;;;12.85;52.32;99622.78;5111990;28;20055;-62
2022/10/10 07:04:54;;;;;;;4.13;2.10;;;;;;;12.88;52.52;99624.34;5111976;28;20047;-60
2022/10/10 07:07:20;;;;;;;2.90;1.90;;;;;;;12.90;52.53;99618.00;5112106;28;20052;-62
2022/10/10 07:09:47;;;;;;;4.38;2.70;;;;;;;12.92;52.70;99620.53;5111511;28;20079;-59
2022/10/10 07:12:13;;;;;;;5.18;1.98;;;;;;;12.94;52.46;99618.66;5112188;28;20094;-62
2022/10/10 07:14:40;;;;;;;3.30;2.08;;;;;;;12.97;52.50;99620.25;5112075;28;20051;-60
2022/10/10 07:17:06;;;;;;;3.08;1.80;;;;;;;12.99;52.55;99620.97;5111794;28;20568;-60
2022/10/10 07:19:36;;;;;;;4.18;2.20;;;;;;;13.00;52.86;99620.00;5111337;28;20667;-61
2022/10/10 07:22:03;;;;;;;3.67;2.15;;;;;;;13.03;52.60;99625.09;5109938;28;20403;-60
2022/10/10 07:24:30;;;;;;;5.15;2.30;;;;;;;13.04;52.59;99626.78;5111597;28;20048;-60
2022/10/10 07:26:57;;;;;;;5.40;2.40;;;;;;;13.06;52.63;99632.81;5111779;28;20104;-60
2022/10/10 07:29:33;;;;;;;6.60;2.38;;;;;;;13.08;52.63;99633.53;5111581;28;20130;-61
2022/10/10 07:31:59;;;;;;;3.80;2.17;;;;;;;13.09;52.78;99632.56;5111393;28;20580;-61
2022/10/10 07:34:26;;;;;;;5.25;2.45;;;;;;;13.12;52.79;99629.72;5111604;28;20412;-61
2022/10/10 07:36:53;;;;;;;7.93;2.40;;;;;;;13.12;52.78;99629.72;5111403;28;20091;-61
2022/10/10 07:39:20;;;;;;;3.83;2.42;;;;;;;13.15;52.85;99636.59;5111526;28;20047;-61
2022/10/10 07:41:49;;;;;;;5.28;2.22;;;;;;;13.16;53.00;99636.50;5110253;28;20052;-60
2022/10/10 07:44:15;;;;;;;4.38;2.60;;;;;;;13.20;52.96;99641.56;5110385;28;20175;-61
2022/10/10 07:46:43;;;;;;;5.40;2.60;;;;;;;13.21;53.22;99628.25;5111285;28;20044;-62
2022/10/10 07:49:09;;;;;;;6.95;2.55;;;;;;;13.23;53.06;99639.53;5111159;28;20051;-60
2022/10/10 07:51:37;;;;;;;3.63;2.38;;;;;;;13.24;53.13;99625.38;5111204;28;20138;-62
2022/10/10 07:54:04;;;;;;;3.65;2.30;;;;;;;13.28;53.04;99639.22;5111556;28;20075;-61
2022/10/10 07:56:31;;;;;;;7.60;2.58;;;;;;;13.30;53.18;99639.97;5111506;28;20454;-60
2022/10/10 07:58:59;;;;;;;4.18;2.90;;;;;;;13.32;53.31;99632.78;5111179;28;20087;-60
2022/10/10 08:01:26;;;;;;;5.00;2.65;;;;;;;13.34;53.02;99630.03;5110050;28;20697;-60
2022/10/10 08:03:54;;;;;;;5.93;2.70;;;;;;;13.36;53.52;99639.53;5109934;28;20051;-62
2022/10/10 08:06:21;;;;;;;4.18;2.58;;;;;;;13.39;53.33;99628.72;5110112;28;20134;-60
2022/10/10 08:08:49;;;;;;;5.25;2.90;;;;;;;13.41;53.31;99640.06;5111113;28;20055;-60
2022/10/10 08:11:20;;;;;;;3.90;2.60;;;;;;;13.45;53.39;99638.03;5111047;28;20077;-60
2022/10/10 08:13:47;;;;;;;6.60;2.78;;;;;;;13.50;53.47;99645.69;5111252;28;20090;-63
2022/10/10 08:16:14;;;;;;;5.07;2.60;;;;;;;13.53;53.55;99626.97;5111059;28;20134;-60
2022/10/10 08:18:41;;;;;;;5.32;2.90;;;;;;;13.57;53.74;99636.34;5109706;28;20055;-61
2022/10/10 08:21:11;;;;;;;5.25;3.15;;;;;;;13.61;53.94;99644.91;5111291;28;20083;-60
2022/10/10 08:23:37;;;;;;;4.55;2.67;;;;;;;13.65;53.67;99635.81;5109935;28;20090;-63
2022/10/10 08:26:08;;;;;;;4.97;2.85;;;;;;;13.71;54.21;99642.47;5111147;28;20126;-60
2022/10/10 08:28:37;;;;;;;7.68;3.33;;;;;;;13.78;53.71;99643.69;5109722;28;20116;-59
2022/10/10 08:31:06;;;;;;;9.90;3.30;;;;;;;13.83;53.90;99633.59;5110838;28;20048;-60
2022/10/10 08:33:33;;;;;;;4.82;3.40;;;;;;;13.90;53.70;99641.94;5114851;28;20052;-61
2022/10/10 08:36:07;;;;;;;4.43;2.70;;;;;;;13.96;54.44;99651.25;5114687;28;20090;-62
2022/10/10 08:38:34;;;;;;;8.63;3.40;;;;;;;14.03;53.86;99642.75;5114592;28;20488;-61
2022/10/10 08:41:26;;;;;;;5.30;3.13;;;;;;;14.07;54.38;99641.56;5096887;28;20047;-60
2022/10/10 08:44:00;;;;;;;5.63;2.83;;;;;;;14.17;54.29;99641.72;5113309;28;20076;-60
2022/10/10 08:46:41;;;;;;;5.60;2.90;;;;;;;14.21;54.36;99642.34;5114552;28;20109;-61
2022/10/10 08:49:28;;;;;;;6.28;2.65;;;;;;;14.25;54.71;99638.53;5113236;28;20101;-61
2022/10/10 08:52:13;;;;;;;4.30;3.20;;;;;;;14.32;54.13;99641.56;5113202;28;20059;-61
2022/10/10 08:54:41;;;;;;;5.30;3.13;;;;;;;14.39;53.52;99639.28;5114460;28;20116;-61
2022/10/10 08:57:32;;;;;;;10.13;3.25;;;;;;;14.39;54.20;99628.69;5113270;28;20044;-61
2022/10/10 09:00:04;;;;;;;6.65;3.15;;;;;;;14.46;53.82;99632.56;5114078;28;20131;-60
2022/10/10 09:02:37;;;;;;;6.32;3.53;;;;;;;14.51;54.13;99632.22;5112897;28;20047;-61
2022/10/10 09:05:34;;;;;;;8.18;3.20;;;;;;;14.57;54.16;99631.75;5114395;28;20052;-60
2022/10/10 09:08:09;;;;;;;7.95;3.50;;;;;;;14.61;54.23;99635.84;5114227;28;20048;-60
2022/10/10 09:10:54;;;;;;;4.80;3.08;;;;;;;14.67;54.11;99632.75;5113177;28;20043;-62
2022/10/10 09:13:22;;;;;;;5.88;3.28;;;;;;;14.76;53.69;99633.84;5114484;28;20134;-61
2022/10/10 09:15:56;;;;;;;17.27;3.95;;;;;;;14.80;54.13;99637.13;5114256;28;20044;-61
2022/10/10 09:18:26;;;;;;;9.25;3.55;;;;;;;14.86;54.26;99644.59;5113034;28;20090;-61
2022/10/10 09:21:07;;;;;;;5.90;3.28;;;;;;;14.93;53.83;99652.91;5114126;28;20086;-61
2022/10/10 09:23:41;;;;;;;5.93;3.58;;;;;;;14.98;54.48;99654.25;5114277;28;20056;-62
2022/10/10 09:26:12;;;;;;;5.72;3.70;;;;;;;15.06;54.23;99644.88;5114200;28;20051;-62
2022/10/10 09:28:49;;;;;;;4.40;3.40;;;;;;;15.16;54.00;99648.50;5113753;28;20080;-64
2022/10/10 09:31:21;;;;;;;4.40;3.10;;;;;;;15.24;54.03;99646.09;5112607;28;20508;-63
2022/10/10 09:34:18;;;;;;;11.48;3.55;;;;;;;15.31;54.38;99648.25;5112827;28;20356;-61
2022/10/10 09:36:46;;;;;;;8.00;3.20;;;;;;;15.44;54.31;99648.94;5108935;28;20140;-64
2022/10/10 09:39:42;;;;;;;7.40;3.20;;;;;;;15.50;54.54;99645.81;5112016;28;20518;-64
2022/10/10 09:42:21;;;;;;;5.70;2.90;;;;;;;15.61;54.30;99637.00;5113513;28;20051;-62
2022/10/10 09:44:48;;;;;;;8.82;3.50;;;;;;;15.74;53.78;99638.69;5112893;28;20407;-61
2022/10/10 09:47:16;;;;;;;7.43;3.80;;;;;;;15.83;53.94;99648.53;5113663;28;20052;-64
2022/10/10 09:49:43;;;;;;;10.27;3.58;;;;;;;15.94;53.89;99639.75;5112259;28;20449;-61
2022/10/10 09:52:26;;;;;;;5.55;3.08;;;;;;;16.03;54.22;99646.09;5113298;28;20047;-62
2022/10/10 09:55:00;;;;;;;5.15;3.40;;;;;;;16.18;54.13;99649.28;5112601;28;20047;-60
2022/10/10 09:57:34;;;;;;;4.03;3.30;;;;;;;16.32;53.99;99645.50;5112289;28;20051;-61
2022/10/10 10:00:24;;;;;;;10.75;3.58;;;;;;;16.44;54.04;99648.94;5112104;28;20051;-61
2022/10/10 10:03:17;;;;;;;11.27;3.65;;;;;;;16.58;53.87;99650.47;5113251;28;20207;-61
2022/10/10 10:05:59;;;;;;;8.90;3.33;;;;;;;16.76;53.41;99653.38;5112182;28;20138;-60
2022/10/10 10:08:31;;;;;;;8.23;3.97;;;;;;;16.89;53.36;99652.31;5113023;28;20044;-61
2022/10/10 10:10:58;;;;;;;6.23;3.20;;;;;;;17.04;53.34;99666.09;5113110;28;20059;-60
2022/10/10 10:13:30;;;;;;;4.43;3.03;;;;;;;17.17;53.22;99657.97;5112938;28;20055;-62
2022/10/10 10:16:12;;;;;;;10.30;3.17;;;;;;;17.28;53.04;99646.38;5111963;28;20090;-61
2022/10/10 10:18:43;;;;;;;5.65;3.15;;;;;;;17.44;52.42;99657.38;5112811;28;20058;-61
2022/10/10 10:21:15;;;;;;;8.88;3.58;;;;;;;17.60;52.41;99649.84;5111592;28;20073;-62
2022/10/10 10:23:55;;;;;;;5.90;3.75;;;;;;;17.69;51.91;99655.19;5112858;28;20059;-62
2022/10/10 10:26:22;;;;;;;4.55;3.03;;;;;;;17.83;52.20;99648.63;5111826;28;20101;-60
2022/10/10 10:28:50;;;;;;;7.25;3.40;;;;;;;17.93;51.60;99655.78;5112678;28;20101;-61
2022/10/10 10:31:36;;;;;;;7.13;3.50;;;;;;;17.97;51.20;99651.88;5111767;28;20419;-61
2022/10/10 10:34:21;;;;;;;6.22;3.40;;;;;;;18.04;51.03;99662.81;5112948;28;20818;-64
2022/10/10 10:37:03;;;;;;;4.53;3.05;;;;;;;18.08;51.19;99661.59;5112507;28;20040;-62
2022/10/10 10:39:36;;;;;;;4.03;2.70;;;;;;;18.16;50.85;99651.09;5112119;28;20504;-62
2022/10/10 10:42:32;;;;;;;5.88;3.35;;;;;;;18.22;51.25;99652.34;5112414;28;20461;-61
2022/10/10 10:45:28;;;;;;;4.38;3.00;;;;;;;18.28;51.19;99651.78;5074251;28;20044;-61
2022/10/10 10:48:02;;;;;;;6.90;3.38;;;;;;;18.40;51.67;99644.50;5112427;28;20052;-60
2022/10/10 10:51:27;;;;;;;7.13;3.08;;;;;;;18.52;51.36;99663.00;5112165;28;20051;-61
2022/10/10 10:54:13;;;;;;;4.68;2.88;;;;;;;18.66;50.83;99656.38;5094862;28;20112;-63
2022/10/10 10:57:12;;;;;;;7.28;3.22;;;;;;;18.78;50.60;99657.91;5111339;28;20135;-61
2022/10/10 11:00:19;;;;;;;4.68;2.75;;;;;;;18.88;50.66;99656.06;5101738;28;20163;-61
2022/10/10 11:03:23;;;;;;;6.10;3.35;;;;;;;19.01;50.68;99652.25;5111310;28;20138;-62
2022/10/10 11:06:37;;;;;;;6.28;3.03;;;;;;;19.17;50.42;99653.50;5112397;28;20051;-61
2022/10/10 11:09:34;;;;;;;7.10;3.08;;;;;;;19.31;50.34;99645.00;5111618;28;20044;-61
2022/10/10 11:12:43;;;;;;;4.68;2.65;;;;;;;19.47;50.12;99654.22;5111137;28;20048;-61
2022/10/10 11:15:17;;;;;;;7.93;3.30;;;;;;;19.75;50.84;99649.69;5111823;28;20069;-61
2022/10/10 11:18:15;;;;;;;5.47;2.75;;;;;;;20.08;50.62;99654.56;5110878;28;20438;-61
2022/10/10 11:20:53;;;;;;;5.45;2.17;;;;;;;20.51;49.12;99653.91;5108776;28;20092;-61
2022/10/10 11:23:29;;;;;;;6.40;2.75;;;;;;;20.85;48.83;99644.31;5110620;28;20047;-61
2022/10/10 11:26:12;;;;;;;8.10;2.85;;;;;;;21.11;48.41;99644.31;5111943;28;20097;-63
2022/10/10 11:28:46;;;;;;;7.05;2.42;;;;;;;21.29;47.30;99660.28;5110151;28;20044;-60
2022/10/10 11:31:21;;;;;;;6.40;2.38;;;;;;;21.43;47.19;99658.00;5110410;28;20074;-63
2022/10/10 11:33:53;;;;;;;7.40;2.78;;;;;;;21.59;47.21;99665.25;5110258;28;20495;-60
2022/10/10 11:36:27;;;;;;;4.85;2.28;;;;;;;21.82;47.24;99659.31;5111441;28;20054;-61
2022/10/10 11:39:19;;;;;;;4.88;2.30;;;;;;;22.05;46.54;99659.53;5110150;28;20063;-61
2022/10/10 11:42:06;;;;;;;9.00;2.63;;;;;;;22.34;46.25;99658.25;5111515;28;20055;-62
2022/10/10 11:44:38;;;;;;;6.47;2.72;;;;;;;22.59;44.50;99662.78;5111256;28;20090;-61
2022/10/10 11:47:34;;;;;;;8.47;2.43;;;;;;;22.69;44.91;99660.75;5111322;28;20087;-60
2022/10/10 11:50:38;;;;;;;10.05;2.25;;;;;;;22.77;44.28;99662.63;5111468;28;20048;-60
2022/10/10 11:53:19;;;;;;;6.43;2.00;;;;;;;22.78;43.21;99657.09;5110279;28;20051;-61
2022/10/10 11:55:48;;;;;;;4.97;2.45;;;;;;;22.84;43.70;99663.59;5111460;28;20686;-61
2022/10/10 11:58:31;;;;;;;5.47;2.40;;;;;;;22.78;42.66;99666.97;5111234;28;20097;-60